Time;durP1;ratioP1;P1;durP2;ratioP2;P2;SDS_P1;SDS_P2;PMS_P1;PMS_P2;Temp;Humidity;BMP_temperature;BMP_pressure;BME280_temperature;BME280_humidity;BME280_pressure;Samples;Min_cycle;Max_cycle;Signal;HPM_P1;HPM_P2
2021/08/06 00:01:16;;;;;;;9.80;2.80;;;;;;;;;;4962319;28;20042;-76
2021/08/06 00:03:42;;;;;;;5.32;2.50;;;;;;;;;;4948332;28;20038;-76
2021/08/06 00:06:07;;;;;;;6.20;2.72;;;;;;;;;;4969620;28;20342;-75
2021/08/06 00:08:33;;;;;;;3.42;2.13;;;;;;;;;;4967547;28;20062;-76
2021/08/06 00:10:59;;;;;;;3.92;2.30;;;;;;;;;;4965534;28;20034;-76
2021/08/06 00:13:24;;;;;;;4.63;2.50;;;;;;;;;;4950890;28;20034;-76
2021/08/06 00:15:49;;;;;;;3.75;2.30;;;;;;;;;;4967557;28;20035;-76
2021/08/06 00:18:15;;;;;;;5.47;2.50;;;;;;;;;;4965987;28;20022;-76
2021/08/06 00:20:40;;;;;;;7.28;2.80;;;;;;;;;;4948369;28;20539;-76
2021/08/06 00:23:06;;;;;;;6.28;2.60;;;;;;;;;;4967747;28;20038;-76
2021/08/06 00:25:31;;;;;;;6.32;2.58;;;;;;;;;;4970013;28;20298;-76
2021/08/06 00:27:57;;;;;;;4.15;2.47;;;;;;;;;;4932094;28;20031;-76
2021/08/06 00:30:22;;;;;;;8.43;2.80;;;;;;;;;;4946949;28;20077;-76
2021/08/06 00:32:48;;;;;;;7.05;2.90;;;;;;;;;;4929461;28;20035;-76
2021/08/06 00:35:20;;;;;;;4.97;2.78;;;;;;;;;;4947170;28;20121;-76
2021/08/06 00:37:49;;;;;;;8.02;2.88;;;;;;;;;;4948663;28;20038;-75
2021/08/06 00:40:14;;;;;;;4.10;2.60;;;;;;;;;;4953306;28;20090;-76
2021/08/06 00:42:42;;;;;;;6.22;3.10;;;;;;;;;;4953967;28;20582;-75
2021/08/06 00:45:13;;;;;;;7.78;3.20;;;;;;;;;;4947518;28;20570;-76
2021/08/06 00:47:43;;;;;;;9.35;2.90;;;;;;;;;;4947125;28;20038;-76
2021/08/06 00:50:10;;;;;;;5.45;2.72;;;;;;;;;;4928242;28;20031;-76
2021/08/06 00:52:37;;;;;;;4.18;2.25;;;;;;;;;;4946168;28;20480;-75
2021/08/06 00:55:04;;;;;;;12.10;3.10;;;;;;;;;;4932769;28;20049;-75
2021/08/06 00:57:33;;;;;;;4.75;2.60;;;;;;;;;;4948124;28;20577;-76
2021/08/06 01:00:07;;;;;;;6.38;2.65;;;;;;;;;;4947075;28;20134;-76
2021/08/06 01:02:33;;;;;;;4.70;2.60;;;;;;;;;;4946255;28;20564;-76
2021/08/06 01:05:09;;;;;;;3.83;2.65;;;;;;;;;;4950773;28;20041;-75
2021/08/06 01:07:46;;;;;;;4.28;2.33;;;;;;;;;;4943017;28;20045;-76
2021/08/06 01:10:12;;;;;;;5.43;2.45;;;;;;;;;;4945147;28;20247;-76
2021/08/06 01:12:54;;;;;;;3.17;2.15;;;;;;;;;;4932681;28;20030;-76
2021/08/06 01:15:22;;;;;;;3.13;2.15;;;;;;;;;;4948613;28;20263;-76
2021/08/06 01:17:49;;;;;;;3.35;2.22;;;;;;;;;;4931783;28;20026;-76
2021/08/06 01:20:23;;;;;;;8.55;2.92;;;;;;;;;;4943967;28;20035;-75
2021/08/06 01:22:51;;;;;;;5.03;2.50;;;;;;;;;;4945900;28;20070;-75
2021/08/06 01:25:41;;;;;;;4.15;2.40;;;;;;;;;;4947051;28;20041;-76
2021/08/06 01:28:06;;;;;;;6.30;2.50;;;;;;;;;;4940263;28;20206;-75
2021/08/06 01:30:33;;;;;;;4.13;2.40;;;;;;;;;;4946819;28;20022;-76
2021/08/06 01:32:59;;;;;;;4.07;2.30;;;;;;;;;;4932630;28;20488;-76
2021/08/06 01:35:25;;;;;;;4.10;2.75;;;;;;;;;;4947762;28;20034;-77
2021/08/06 01:37:51;;;;;;;4.68;2.60;;;;;;;;;;4948498;28;20034;-76
2021/08/06 01:40:18;;;;;;;6.47;2.80;;;;;;;;;;4944760;28;20025;-76
2021/08/06 01:43:00;;;;;;;7.63;2.55;;;;;;;;;;4947124;28;20137;-76
2021/08/06 01:45:29;;;;;;;3.88;2.38;;;;;;;;;;4939818;28;20027;-76
2021/08/06 01:47:55;;;;;;;4.82;2.40;;;;;;;;;;4947501;28;20030;-76
2021/08/06 01:50:36;;;;;;;4.35;2.33;;;;;;;;;;4946429;28;20089;-76
2021/08/06 01:53:07;;;;;;;;;;;;;;;;;;4937169;28;20039;-77
2021/08/06 01:55:45;;;;;;;3.85;2.35;;;;;;;;;;4949082;28;19960;-76
2021/08/06 01:58:13;;;;;;;5.05;2.65;;;;;;;;;;4940402;28;20057;-75
2021/08/06 02:00:45;;;;;;;6.70;2.80;;;;;;;;;;4942768;28;20259;-76
2021/08/06 02:03:10;;;;;;;4.28;2.47;;;;;;;;;;4946399;28;20081;-76
2021/08/06 02:05:36;;;;;;;5.60;2.60;;;;;;;;;;4945040;28;20122;-76
2021/08/06 02:08:13;;;;;;;;;;;;;;;;;;4947626;28;20062;-76
2021/08/06 02:10:42;;;;;;;4.65;3.00;;;;;;;;;;4950253;28;20562;-76
2021/08/06 02:13:09;;;;;;;5.10;3.15;;;;;;;;;;4945745;28;20054;-76
2021/08/06 02:15:34;;;;;;;7.15;3.10;;;;;;;;;;4945749;28;20023;-76
2021/08/06 02:18:00;;;;;;;5.63;2.75;;;;;;;;;;4947561;28;20034;-77
2021/08/06 02:20:37;;;;;;;7.23;3.10;;;;;;;;;;4947773;28;20162;-76
2021/08/06 02:23:04;;;;;;;6.63;3.40;;;;;;;;;;4930635;28;20276;-76
2021/08/06 02:25:31;;;;;;;6.20;3.38;;;;;;;;;;4932268;28;20042;-76
2021/08/06 02:27:58;;;;;;;13.25;4.45;;;;;;;;;;4933066;28;20030;-76
2021/08/06 02:30:30;;;;;;;7.57;3.20;;;;;;;;;;4944931;28;20034;-76
2021/08/06 02:32:57;;;;;;;;;;;;;;;;;;4946951;28;20770;-75
2021/08/06 02:35:22;;;;;;;7.43;3.00;;;;;;;;;;4951662;28;19918;-76
2021/08/06 02:37:49;;;;;;;4.43;2.92;;;;;;;;;;4947403;28;20031;-76
2021/08/06 02:40:15;;;;;;;;;;;;;;;;;;4964864;28;20177;-76
2021/08/06 02:42:40;;;;;;;4.57;2.97;;;;;;;;;;4929029;28;20553;-76
2021/08/06 02:45:06;;;;;;;9.07;3.38;;;;;;;;;;4943284;28;20631;-76
2021/08/06 02:47:32;;;;;;;8.18;3.70;;;;;;;;;;4945578;28;20026;-75
2021/08/06 02:49:57;;;;;;;4.88;3.33;;;;;;;;;;4962690;28;20038;-75
2021/08/06 02:52:23;;;;;;;7.18;3.30;;;;;;;;;;4929553;28;20027;-77
2021/08/06 02:54:48;;;;;;;4.30;3.08;;;;;;;;;;4947946;28;20643;-76
2021/08/06 02:57:15;;;;;;;6.15;3.03;;;;;;;;;;4929170;28;20165;-76
2021/08/06 02:59:40;;;;;;;6.90;3.25;;;;;;;;;;4943055;28;20146;-76
2021/08/06 03:02:08;;;;;;;6.60;3.10;;;;;;;;;;4949846;28;20057;-75
2021/08/06 03:04:35;;;;;;;4.93;3.08;;;;;;;;;;4946456;28;20175;-76
2021/08/06 03:07:03;;;;;;;5.00;2.83;;;;;;;;;;4928761;28;20027;-76
2021/08/06 03:09:29;;;;;;;11.10;3.90;;;;;;;;;;4946987;28;20364;-76
2021/08/06 03:11:55;;;;;;;6.20;3.78;;;;;;;;;;4946053;28;20216;-76
2021/08/06 03:14:21;;;;;;;5.65;3.42;;;;;;;;;;4947289;28;20121;-76
2021/08/06 03:16:47;;;;;;;4.80;3.08;;;;;;;;;;4945011;28;20412;-76
2021/08/06 03:19:13;;;;;;;10.93;3.53;;;;;;;;;;4944104;28;20039;-76
2021/08/06 03:21:38;;;;;;;5.82;3.08;;;;;;;;;;4945719;28;20022;-75
2021/08/06 03:24:04;;;;;;;5.45;3.20;;;;;;;;;;4943800;28;20475;-76
2021/08/06 03:26:30;;;;;;;5.13;3.30;;;;;;;;;;4946748;28;20034;-76
2021/08/06 03:28:55;;;;;;;5.38;3.15;;;;;;;;;;4946716;28;20035;-76
2021/08/06 03:31:21;;;;;;;7.22;2.95;;;;;;;;;;4930477;28;20532;-76
2021/08/06 03:33:47;;;;;;;4.97;3.05;;;;;;;;;;4944823;28;20396;-77
2021/08/06 03:36:14;;;;;;;8.40;3.67;;;;;;;;;;4946111;28;20038;-75
2021/08/06 03:38:43;;;;;;;9.07;3.40;;;;;;;;;;4945567;28;20546;-76
2021/08/06 03:41:09;;;;;;;4.60;3.10;;;;;;;;;;4944561;28;20095;-77
2021/08/06 03:43:37;;;;;;;5.80;2.67;;;;;;;;;;4944145;28;20727;-77
2021/08/06 03:46:03;;;;;;;6.90;3.58;;;;;;;;;;4943927;28;20607;-76
2021/08/06 03:48:28;;;;;;;11.38;3.30;;;;;;;;;;4948618;28;20210;-75
2021/08/06 03:50:57;;;;;;;5.97;2.88;;;;;;;;;;4943290;28;20217;-75
2021/08/06 03:53:23;;;;;;;4.07;2.58;;;;;;;;;;4944633;28;20386;-76
2021/08/06 03:55:49;;;;;;;7.38;3.03;;;;;;;;;;4946600;28;20039;-76
2021/08/06 03:58:15;;;;;;;10.83;3.50;;;;;;;;;;4928872;28;20038;-75
2021/08/06 04:00:41;;;;;;;7.78;3.20;;;;;;;;;;4946347;28;20777;-76
2021/08/06 04:03:09;;;;;;;5.47;3.15;;;;;;;;;;4950541;28;20034;-75
2021/08/06 04:05:37;;;;;;;6.55;3.30;;;;;;;;;;4937299;28;20030;-76
2021/08/06 04:08:07;;;;;;;6.45;3.13;;;;;;;;;;4932166;28;20035;-76
2021/08/06 04:10:36;;;;;;;8.88;2.90;;;;;;;;;;4948381;28;20034;-75
2021/08/06 04:13:04;;;;;;;5.72;2.90;;;;;;;;;;4932319;28;20122;-76
2021/08/06 04:15:29;;;;;;;5.28;2.78;;;;;;;;;;4930347;28;20121;-77
2021/08/06 04:17:57;;;;;;;5.43;3.22;;;;;;;;;;4930334;28;20023;-76
2021/08/06 04:20:23;;;;;;;5.43;3.25;;;;;;;;;;4963657;28;20038;-76
2021/08/06 04:22:49;;;;;;;11.38;3.80;;;;;;;;;;4933727;28;20101;-76
2021/08/06 04:25:15;;;;;;;5.60;3.40;;;;;;;;;;4948805;28;20539;-77
2021/08/06 04:27:40;;;;;;;6.55;3.70;;;;;;;;;;4944899;28;20031;-75
2021/08/06 04:30:07;;;;;;;7.40;3.20;;;;;;;;;;4932125;28;20039;-76
2021/08/06 04:32:33;;;;;;;6.03;3.10;;;;;;;;;;4948531;28;20061;-76
2021/08/06 04:34:58;;;;;;;5.63;3.13;;;;;;;;;;4931482;28;20122;-77
2021/08/06 04:37:23;;;;;;;4.93;3.30;;;;;;;;;;4947789;28;20070;-76
2021/08/06 04:39:49;;;;;;;6.53;3.13;;;;;;;;;;4949995;28;20155;-78
2021/08/06 04:42:15;;;;;;;5.25;3.10;;;;;;;;;;4947762;28;20452;-77
2021/08/06 04:44:43;;;;;;;5.80;3.50;;;;;;;;;;4948497;28;20042;-76
2021/08/06 04:47:08;;;;;;;5.25;3.30;;;;;;;;;;4947100;28;20027;-76
2021/08/06 04:49:34;;;;;;;5.13;3.17;;;;;;;;;;4946853;28;20038;-76
2021/08/06 04:52:00;;;;;;;5.10;3.20;;;;;;;;;;4931831;28;20035;-77
2021/08/06 04:54:26;;;;;;;7.50;3.97;;;;;;;;;;4949875;28;20057;-75
2021/08/06 04:56:54;;;;;;;9.23;3.60;;;;;;;;;;4948995;28;20535;-76
2021/08/06 04:59:20;;;;;;;6.68;3.38;;;;;;;;;;4945878;28;20467;-76
2021/08/06 05:01:45;;;;;;;7.80;3.47;;;;;;;;;;4949816;28;20039;-75
2021/08/06 05:04:11;;;;;;;5.82;3.40;;;;;;;;;;4948639;28;20113;-77
2021/08/06 05:06:36;;;;;;;5.28;3.42;;;;;;;;;;4923410;28;20031;-76
2021/08/06 05:09:01;;;;;;;5.68;3.53;;;;;;;;;;4943548;28;20277;-76
2021/08/06 05:11:27;;;;;;;9.18;3.90;;;;;;;;;;4940377;28;20027;-77
2021/08/06 05:13:53;;;;;;;5.75;3.72;;;;;;;;;;4944705;28;20066;-76
2021/08/06 05:16:19;;;;;;;7.65;3.72;;;;;;;;;;4947139;28;20121;-76
2021/08/06 05:18:45;;;;;;;5.47;3.78;;;;;;;;;;4947098;28;20034;-77
2021/08/06 05:21:11;;;;;;;5.47;3.58;;;;;;;;;;4946798;28;20493;-77
2021/08/06 05:23:39;;;;;;;8.30;4.20;;;;;;;;;;4940217;28;20034;-78
2021/08/06 05:26:05;;;;;;;7.03;3.60;;;;;;;;;;4937011;28;20030;-74
2021/08/06 05:28:31;;;;;;;5.35;3.38;;;;;;;;;;4936805;28;20035;-73
2021/08/06 05:30:59;;;;;;;7.30;3.17;;;;;;;;;;4939703;28;20033;-73
2021/08/06 05:33:24;;;;;;;7.18;3.72;;;;;;;;;;4959979;28;20515;-74
2021/08/06 05:35:51;;;;;;;;;;;;;;;;;;4945389;28;20106;-74
2021/08/06 05:38:17;;;;;;;7.45;3.92;;;;;;;;;;4962682;28;20011;-73
2021/08/06 05:40:44;;;;;;;7.10;3.80;;;;;;;;;;4943009;28;20336;-74
2021/08/06 05:43:13;;;;;;;7.80;3.92;;;;;;;;;;4941274;28;20042;-73
2021/08/06 05:45:39;;;;;;;8.73;4.00;;;;;;;;;;4946517;28;20026;-74
2021/08/06 05:48:05;;;;;;;7.30;3.95;;;;;;;;;;4928663;28;20706;-73
2021/08/06 05:50:39;;;;;;;7.50;4.07;;;;;;;;;;4945756;28;20049;-73
2021/08/06 05:53:05;;;;;;;6.43;3.90;;;;;;;;;;4929615;28;20055;-73
2021/08/06 05:55:30;;;;;;;6.95;4.32;;;;;;;;;;4930622;28;20058;-73
2021/08/06 05:58:01;;;;;;;7.43;4.00;;;;;;;;;;4943466;28;20030;-73
2021/08/06 06:00:28;;;;;;;6.35;3.47;;;;;;;;;;4928118;28;20216;-73
2021/08/06 06:03:03;;;;;;;10.38;4.20;;;;;;;;;;4941578;28;20069;-73
2021/08/06 06:05:51;;;;;;;7.90;4.00;;;;;;;;;;4928204;28;20427;-73
2021/08/06 06:08:16;;;;;;;7.20;3.75;;;;;;;;;;4945905;28;20030;-72
2021/08/06 06:10:44;;;;;;;7.55;3.60;;;;;;;;;;4942953;28;20468;-73
2021/08/06 06:13:10;;;;;;;12.35;3.95;;;;;;;;;;4944823;28;20149;-73
2021/08/06 06:15:38;;;;;;;7.68;3.75;;;;;;;;;;4932022;28;20113;-77
2021/08/06 06:18:04;;;;;;;5.50;3.50;;;;;;;;;;4940762;28;20113;-79
2021/08/06 06:20:30;;;;;;;6.28;3.45;;;;;;;;;;4944444;28;20062;-79
2021/08/06 06:22:57;;;;;;;6.30;3.40;;;;;;;;;;4943765;28;20039;-76
2021/08/06 06:25:22;;;;;;;8.98;3.10;;;;;;;;;;4946039;28;20031;-77
2021/08/06 06:27:56;;;;;;;5.57;3.30;;;;;;;;;;4951059;28;20046;-76
2021/08/06 06:30:28;;;;;;;7.40;3.35;;;;;;;;;;4954462;28;20284;-77
2021/08/06 06:32:56;;;;;;;6.47;3.00;;;;;;;;;;4942591;28;20065;-82
2021/08/06 06:35:29;;;;;;;6.40;3.50;;;;;;;;;;4958495;28;20359;-79
2021/08/06 06:37:55;;;;;;;6.28;3.30;;;;;;;;;;4952938;28;20253;-76
2021/08/06 06:40:23;;;;;;;5.32;3.13;;;;;;;;;;4930146;28;20023;-78
2021/08/06 06:42:50;;;;;;;5.07;3.15;;;;;;;;;;4943957;28;20527;-77
2021/08/06 06:45:15;;;;;;;4.50;2.72;;;;;;;;;;4942226;28;20031;-76
2021/08/06 06:47:42;;;;;;;4.55;2.85;;;;;;;;;;4916592;28;20487;-76
2021/08/06 06:50:10;;;;;;;6.38;2.90;;;;;;;;;;4946020;28;20093;-76
2021/08/06 06:52:35;;;;;;;;;;;;;;;;;;4943516;28;20089;-76
2021/08/06 06:55:01;;;;;;;6.20;3.33;;;;;;;;;;4963087;28;19922;-76
2021/08/06 06:57:26;;;;;;;5.28;2.55;;;;;;;;;;4945024;28;20039;-78
2021/08/06 06:59:53;;;;;;;4.90;2.80;;;;;;;;;;4944523;28;20034;-79
2021/08/06 07:02:24;;;;;;;4.90;2.55;;;;;;;;;;4927266;28;20453;-77
2021/08/06 07:04:52;;;;;;;5.78;3.03;;;;;;;;;;4928981;28;20052;-76
2021/08/06 07:07:28;;;;;;;5.93;3.10;;;;;;;;;;4925812;28;20039;-78
2021/08/06 07:09:56;;;;;;;10.20;3.10;;;;;;;;;;4939309;28;21217;-76
2021/08/06 07:12:22;;;;;;;5.10;2.88;;;;;;;;;;4928349;28;20031;-77
2021/08/06 07:14:49;;;;;;;8.23;2.83;;;;;;;;;;4943873;28;20043;-77
2021/08/06 07:17:17;;;;;;;6.05;3.20;;;;;;;;;;4930241;28;20492;-76
2021/08/06 07:19:50;;;;;;;5.85;3.13;;;;;;;;;;4929010;28;20034;-76
2021/08/06 07:22:16;;;;;;;5.55;2.75;;;;;;;;;;4947453;28;20405;-76
2021/08/06 07:24:41;;;;;;;5.43;2.88;;;;;;;;;;4943781;28;20041;-77
2021/08/06 07:27:13;;;;;;;6.55;2.60;;;;;;;;;;4941800;28;20054;-76
2021/08/06 07:29:46;;;;;;;6.40;2.60;;;;;;;;;;4961248;28;20038;-76
2021/08/06 07:32:13;;;;;;;6.68;2.58;;;;;;;;;;4940481;28;20058;-75
2021/08/06 07:34:42;;;;;;;5.03;2.58;;;;;;;;;;4941675;28;20035;-76
2021/08/06 07:37:07;;;;;;;5.47;2.80;;;;;;;;;;4928714;28;20101;-76
2021/08/06 07:39:33;;;;;;;5.05;2.97;;;;;;;;;;4945910;28;20507;-77
2021/08/06 07:42:00;;;;;;;6.05;2.50;;;;;;;;;;4940829;28;20058;-77
2021/08/06 07:44:26;;;;;;;4.70;2.58;;;;;;;;;;4962842;28;20096;-75
2021/08/06 07:46:51;;;;;;;5.90;2.50;;;;;;;;;;4930733;28;20041;-75
2021/08/06 07:49:19;;;;;;;5.95;3.00;;;;;;;;;;4947080;28;20561;-76
2021/08/06 07:51:44;;;;;;;6.90;2.70;;;;;;;;;;4927765;28;20034;-75
2021/08/06 07:54:14;;;;;;;4.78;2.72;;;;;;;;;;4946552;28;20582;-75
2021/08/06 07:56:42;;;;;;;5.70;2.30;;;;;;;;;;4931817;28;20181;-75
2021/08/06 07:59:08;;;;;;;5.88;2.53;;;;;;;;;;4964427;28;20183;-73
2021/08/06 08:01:33;;;;;;;5.20;2.55;;;;;;;;;;4931644;28;20612;-73
2021/08/06 08:03:59;;;;;;;5.35;2.53;;;;;;;;;;4933333;28;20062;-74
2021/08/06 08:06:25;;;;;;;3.60;2.33;;;;;;;;;;4930671;28;20172;-73
2021/08/06 08:08:50;;;;;;;5.35;2.42;;;;;;;;;;4930412;28;20301;-73
2021/08/06 08:11:15;;;;;;;4.80;2.20;;;;;;;;;;4941952;28;20635;-73
2021/08/06 08:13:41;;;;;;;4.55;2.55;;;;;;;;;;4945384;28;20486;-75
2021/08/06 08:16:06;;;;;;;6.10;2.58;;;;;;;;;;4947642;28;20077;-78
2021/08/06 08:18:32;;;;;;;4.78;2.55;;;;;;;;;;4927490;28;20035;-74
2021/08/06 08:20:58;;;;;;;5.20;2.78;;;;;;;;;;4943682;28;20101;-76
2021/08/06 08:23:24;;;;;;;5.82;3.05;;;;;;;;;;4942850;28;20041;-74
2021/08/06 08:25:53;;;;;;;6.28;3.28;;;;;;;;;;4948004;28;20404;-75
2021/08/06 08:28:19;;;;;;;5.82;3.10;;;;;;;;;;4935491;28;20233;-75
2021/08/06 08:30:45;;;;;;;5.85;3.25;;;;;;;;;;4937263;28;20127;-75
2021/08/06 08:33:14;;;;;;;7.15;3.53;;;;;;;;;;4947019;28;20043;-76
2021/08/06 08:35:43;;;;;;;6.45;2.13;;;;;;;;;;4959462;28;20505;-74
2021/08/06 08:38:09;;;;;;;3.67;2.22;;;;;;;;;;4945990;28;20031;-75
2021/08/06 08:40:34;;;;;;;4.93;2.67;;;;;;;;;;4943950;28;20507;-73
2021/08/06 08:43:00;;;;;;;5.38;2.80;;;;;;;;;;4944531;28;20022;-76
2021/08/06 08:45:25;;;;;;;4.60;2.45;;;;;;;;;;4938061;28;20031;-76
2021/08/06 08:47:52;;;;;;;6.32;2.70;;;;;;;;;;4939982;28;20034;-72
2021/08/06 08:50:18;;;;;;;4.60;2.67;;;;;;;;;;4944677;28;20157;-73
2021/08/06 08:52:44;;;;;;;3.55;2.25;;;;;;;;;;4927675;28;21082;-74
2021/08/06 08:55:13;;;;;;;4.45;2.28;;;;;;;;;;4938326;28;20118;-72
2021/08/06 08:57:39;;;;;;;7.43;2.10;;;;;;;;;;4942987;28;20467;-72
2021/08/06 09:00:05;;;;;;;7.35;2.70;;;;;;;;;;4943526;28;20038;-72
2021/08/06 09:02:31;;;;;;;8.32;2.70;;;;;;;;;;4963501;28;20206;-72
2021/08/06 09:05:10;;;;;;;4.80;2.10;;;;;;;;;;4947014;28;20137;-72
2021/08/06 09:07:37;;;;;;;4.22;1.92;;;;;;;;;;4954352;28;20166;-73
2021/08/06 09:10:40;;;;;;;6.03;2.20;;;;;;;;;;4949794;28;20039;-73
2021/08/06 09:13:25;;;;;;;4.60;1.90;;;;;;;;;;4960710;28;20580;-72
2021/08/06 09:15:59;;;;;;;2.97;1.83;;;;;;;;;;4947716;28;20133;-73
2021/08/06 09:18:29;;;;;;;4.35;1.90;;;;;;;;;;4941365;28;20240;-73
2021/08/06 09:20:55;;;;;;;4.60;2.20;;;;;;;;;;4943633;28;20031;-75
2021/08/06 09:23:39;;;;;;;5.75;2.05;;;;;;;;;;4944278;28;20042;-74
2021/08/06 09:26:06;;;;;;;4.60;2.10;;;;;;;;;;4963406;28;20031;-74
2021/08/06 09:28:32;;;;;;;4.65;2.13;;;;;;;;;;4961689;28;20050;-74
2021/08/06 09:31:12;;;;;;;3.92;2.13;;;;;;;;;;4945014;28;20516;-73
2021/08/06 09:33:38;;;;;;;4.55;2.10;;;;;;;;;;4946477;28;20368;-74
2021/08/06 09:36:10;;;;;;;2.78;1.75;;;;;;;;;;4958326;28;20379;-74
2021/08/06 09:38:35;;;;;;;6.88;1.95;;;;;;;;;;4960228;28;20042;-75
2021/08/06 09:41:01;;;;;;;9.32;2.25;;;;;;;;;;4963003;28;20394;-75
2021/08/06 09:43:26;;;;;;;4.28;1.90;;;;;;;;;;4963731;28;20511;-73
2021/08/06 09:45:51;;;;;;;6.60;2.13;;;;;;;;;;4963180;28;20030;-74
2021/08/06 09:48:21;;;;;;;6.13;2.03;;;;;;;;;;4944576;28;20019;-74
2021/08/06 09:50:49;;;;;;;3.38;1.70;;;;;;;;;;4961573;28;20065;-74
2021/08/06 09:53:14;;;;;;;3.72;1.63;;;;;;;;;;4927920;28;20066;-75
2021/08/06 09:55:49;;;;;;;3.65;1.50;;;;;;;;;;4945890;28;20069;-74
2021/08/06 09:58:18;;;;;;;4.18;1.60;;;;;;;;;;4942081;28;20484;-74
2021/08/06 10:00:47;;;;;;;2.47;1.60;;;;;;;;;;4924997;28;20041;-75
2021/08/06 10:03:33;;;;;;;4.13;1.80;;;;;;;;;;4958303;28;20496;-73
2021/08/06 10:06:08;;;;;;;3.55;1.70;;;;;;;;;;4954678;28;20275;-73
2021/08/06 10:08:33;;;;;;;3.63;1.70;;;;;;;;;;4954843;28;20420;-75
2021/08/06 10:10:59;;;;;;;3.80;1.40;;;;;;;;;;4955009;28;20036;-74
2021/08/06 10:13:24;;;;;;;4.10;1.83;;;;;;;;;;4941185;28;20030;-75
2021/08/06 10:15:50;;;;;;;4.32;1.83;;;;;;;;;;4936468;28;20038;-74
2021/08/06 10:18:15;;;;;;;2.70;1.40;;;;;;;;;;4939892;28;20065;-74
2021/08/06 10:20:40;;;;;;;2.65;1.50;;;;;;;;;;4939974;28;20070;-75
2021/08/06 10:23:06;;;;;;;3.47;1.50;;;;;;;;;;4957692;28;20431;-76
2021/08/06 10:25:31;;;;;;;7.05;1.85;;;;;;;;;;4934154;28;20031;-75
2021/08/06 10:27:58;;;;;;;2.22;1.38;;;;;;;;;;4943652;28;20034;-75
2021/08/06 10:30:25;;;;;;;4.30;1.98;;;;;;;;;;4958993;28;20142;-74
2021/08/06 10:32:50;;;;;;;;;;;;;;;;;;4937776;28;20038;-74
2021/08/06 10:35:17;;;;;;;1.60;1.07;;;;;;;;;;4959750;28;19928;-75
2021/08/06 10:38:02;;;;;;;5.18;1.60;;;;;;;;;;4955732;28;20042;-74
2021/08/06 10:40:34;;;;;;;2.55;1.40;;;;;;;;;;4958355;28;20019;-75
2021/08/06 10:43:08;;;;;;;2.97;1.45;;;;;;;;;;4943694;28;20448;-74
2021/08/06 10:45:46;;;;;;;3.85;1.40;;;;;;;;;;4939037;28;20366;-73
2021/08/06 10:48:29;;;;;;;2.97;1.50;;;;;;;;;;4946795;28;20031;-74
2021/08/06 10:51:13;;;;;;;5.55;1.63;;;;;;;;;;4934758;28;20435;-74
2021/08/06 10:53:39;;;;;;;3.13;1.40;;;;;;;;;;4958591;28;20030;-75
2021/08/06 10:56:16;;;;;;;4.82;1.65;;;;;;;;;;4961434;28;20484;-74
2021/08/06 10:59:02;;;;;;;3.88;1.40;;;;;;;;;;4942506;28;20046;-74
2021/08/06 11:01:28;;;;;;;1.70;1.30;;;;;;;;;;4937135;28;20140;-75
2021/08/06 11:03:58;;;;;;;4.50;1.60;;;;;;;;;;4959460;28;20165;-75
2021/08/06 11:06:35;;;;;;;8.48;2.03;;;;;;;;;;4942765;28;20057;-74
2021/08/06 11:09:01;;;;;;;7.15;2.10;;;;;;;;;;4957110;28;20114;-73
2021/08/06 11:11:46;;;;;;;8.10;2.20;;;;;;;;;;4940137;28;20073;-73
2021/08/06 11:14:13;;;;;;;6.45;1.92;;;;;;;;;;4952228;28;20066;-74
2021/08/06 11:16:56;;;;;;;4.90;1.90;;;;;;;;;;4925263;28;20098;-73
2021/08/06 11:19:29;;;;;;;6.03;1.80;;;;;;;;;;4956213;28;20043;-74
2021/08/06 11:21:55;;;;;;;5.50;1.98;;;;;;;;;;4954227;28;20039;-74
2021/08/06 11:24:20;;;;;;;5.70;1.77;;;;;;;;;;4943648;28;20023;-74
2021/08/06 11:26:46;;;;;;;5.53;2.05;;;;;;;;;;4958426;28;20412;-73
2021/08/06 11:29:13;;;;;;;3.25;1.50;;;;;;;;;;4943296;28;20037;-74
2021/08/06 11:31:38;;;;;;;4.53;1.80;;;;;;;;;;4957730;28;20427;-74
2021/08/06 11:34:04;;;;;;;4.78;1.88;;;;;;;;;;4943732;28;20041;-74
2021/08/06 11:36:30;;;;;;;4.47;1.63;;;;;;;;;;4941624;28;20060;-74
2021/08/06 11:39:01;;;;;;;6.55;1.60;;;;;;;;;;4940957;28;20508;-72
2021/08/06 11:41:27;;;;;;;3.72;1.60;;;;;;;;;;4959582;28;20027;-72
2021/08/06 11:43:52;;;;;;;8.93;1.92;;;;;;;;;;4960114;28;20662;-73
2021/08/06 11:46:18;;;;;;;3.42;1.75;;;;;;;;;;4959293;28;20053;-72
2021/08/06 11:49:00;;;;;;;5.72;2.20;;;;;;;;;;4960039;28;20440;-72
2021/08/06 11:51:25;;;;;;;4.15;1.75;;;;;;;;;;4942528;28;20523;-72
2021/08/06 11:53:51;;;;;;;3.22;1.60;;;;;;;;;;4942551;28;20036;-72
2021/08/06 11:56:17;;;;;;;5.20;1.80;;;;;;;;;;4959476;28;20035;-72
2021/08/06 11:58:43;;;;;;;2.45;1.50;;;;;;;;;;4958435;28;20039;-73
2021/08/06 12:01:16;;;;;;;3.55;1.67;;;;;;;;;;4961257;28;20042;-71
2021/08/06 12:03:43;;;;;;;4.03;1.60;;;;;;;;;;4949715;28;20434;-75
2021/08/06 12:06:10;;;;;;;5.85;1.95;;;;;;;;;;4924538;28;20137;-72
2021/08/06 12:08:36;;;;;;;6.60;2.10;;;;;;;;;;4960152;28;20133;-72
2021/08/06 12:11:04;;;;;;;5.82;2.00;;;;;;;;;;4958645;28;20559;-73
2021/08/06 12:13:30;;;;;;;7.28;2.00;;;;;;;;;;4963570;28;20022;-72
2021/08/06 12:16:22;;;;;;;3.50;2.03;;;;;;;;;;4960045;28;20058;-72
2021/08/06 12:18:48;;;;;;;10.13;1.88;;;;;;;;;;4952982;28;20511;-72
2021/08/06 12:21:17;;;;;;;2.95;1.40;;;;;;;;;;4941820;28;20042;-73
2021/08/06 12:23:43;;;;;;;3.60;1.50;;;;;;;;;;4947361;28;20109;-73
2021/08/06 12:26:19;;;;;;;3.05;1.40;;;;;;;;;;4963131;28;20082;-72
2021/08/06 12:28:46;;;;;;;3.47;1.30;;;;;;;;;;4964092;28;20484;-74
2021/08/06 12:31:26;;;;;;;3.97;1.60;;;;;;;;;;4963050;28;20035;-72
2021/08/06 12:34:08;;;;;;;1.85;1.13;;;;;;;;;;4962758;28;20034;-75
2021/08/06 12:36:35;;;;;;;5.63;1.30;;;;;;;;;;4963550;28;20038;-72
2021/08/06 12:39:07;;;;;;;5.45;1.70;;;;;;;;;;4960542;28;20105;-73
2021/08/06 12:41:32;;;;;;;5.32;1.60;;;;;;;;;;4961714;28;20053;-73
2021/08/06 12:44:11;;;;;;;4.53;1.57;;;;;;;;;;4943699;28;20407;-73
2021/08/06 12:46:36;;;;;;;4.25;1.40;;;;;;;;;;4943264;28;20031;-74
2021/08/06 12:49:06;;;;;;;2.07;1.10;;;;;;;;;;4959982;28;20031;-72
2021/08/06 12:51:32;;;;;;;2.75;1.10;;;;;;;;;;4963036;28;20031;-73
2021/08/06 12:53:58;;;;;;;1.92;1.20;;;;;;;;;;4945109;28;20443;-72
2021/08/06 12:56:23;;;;;;;3.63;1.33;;;;;;;;;;4961678;28;20484;-72
2021/08/06 12:59:08;;;;;;;3.23;1.30;;;;;;;;;;4961134;28;20045;-71
2021/08/06 13:01:37;;;;;;;5.60;1.40;;;;;;;;;;4963947;28;20057;-73
2021/08/06 13:04:02;;;;;;;2.30;1.20;;;;;;;;;;4962167;28;20022;-72
2021/08/06 13:06:43;;;;;;;3.50;1.10;;;;;;;;;;4944327;28;20101;-73
2021/08/06 13:09:09;;;;;;;1.98;1.10;;;;;;;;;;4957156;28;21123;-73
2021/08/06 13:11:34;;;;;;;3.50;1.20;;;;;;;;;;4960109;28;20069;-73
2021/08/06 13:14:00;;;;;;;3.23;1.47;;;;;;;;;;4944144;28;20085;-73
2021/08/06 13:16:25;;;;;;;2.60;1.17;;;;;;;;;;4961728;28;20031;-71
2021/08/06 13:18:52;;;;;;;1.75;1.08;;;;;;;;;;4961429;28;20039;-72
2021/08/06 13:21:17;;;;;;;3.20;1.30;;;;;;;;;;4926021;28;20038;-72
2021/08/06 13:23:43;;;;;;;2.90;1.20;;;;;;;;;;4947009;28;20080;-73
2021/08/06 13:26:09;;;;;;;2.67;1.40;;;;;;;;;;4962283;28;20157;-71
2021/08/06 13:28:34;;;;;;;2.80;1.15;;;;;;;;;;4964492;28;20034;-72
2021/08/06 13:31:00;;;;;;;3.38;1.45;;;;;;;;;;4927995;28;20062;-73
2021/08/06 13:33:26;;;;;;;2.80;1.45;;;;;;;;;;4927849;28;20039;-72
2021/08/06 13:35:54;;;;;;;4.30;1.47;;;;;;;;;;4966150;28;20539;-71
2021/08/06 13:38:20;;;;;;;2.38;1.20;;;;;;;;;;4960288;28;20035;-73
2021/08/06 13:40:45;;;;;;;2.17;1.40;;;;;;;;;;4940598;28;20081;-72
2021/08/06 13:43:10;;;;;;;3.93;1.50;;;;;;;;;;4962053;28;20150;-72
2021/08/06 13:45:37;;;;;;;2.93;1.47;;;;;;;;;;4948736;28;20031;-73
2021/08/06 13:48:04;;;;;;;4.60;1.50;;;;;;;;;;4963445;28;20038;-73
2021/08/06 13:50:29;;;;;;;3.05;1.27;;;;;;;;;;4961948;28;20041;-71
2021/08/06 13:52:54;;;;;;;3.07;1.47;;;;;;;;;;4928490;28;20043;-70
2021/08/06 13:55:20;;;;;;;2.27;1.20;;;;;;;;;;4927319;28;20608;-71
2021/08/06 13:57:46;;;;;;;2.40;1.10;;;;;;;;;;4944613;28;20034;-72
2021/08/06 14:00:11;;;;;;;3.03;1.30;;;;;;;;;;4963446;28;20110;-72
2021/08/06 14:02:39;;;;;;;3.20;1.00;;;;;;;;;;4960715;28;20460;-71
2021/08/06 14:05:05;;;;;;;3.20;1.20;;;;;;;;;;4938399;28;21441;-75
2021/08/06 14:07:32;;;;;;;3.63;1.45;;;;;;;;;;4949966;28;20062;-74
2021/08/06 14:09:57;;;;;;;2.47;1.08;;;;;;;;;;4963352;28;20355;-74
2021/08/06 14:12:25;;;;;;;2.77;1.30;;;;;;;;;;4960033;28;20649;-74
2021/08/06 14:14:50;;;;;;;3.78;1.30;;;;;;;;;;4961272;28;20038;-73
2021/08/06 14:17:16;;;;;;;3.70;1.30;;;;;;;;;;4945048;28;20034;-72
2021/08/06 14:19:41;;;;;;;3.25;1.20;;;;;;;;;;4947773;28;20326;-73
2021/08/06 14:22:07;;;;;;;3.93;1.50;;;;;;;;;;4962041;28;20089;-73
2021/08/06 14:24:32;;;;;;;2.63;1.23;;;;;;;;;;4963901;28;20327;-71
2021/08/06 14:26:58;;;;;;;2.90;1.33;;;;;;;;;;4964846;28;20039;-73
2021/08/06 14:29:23;;;;;;;4.00;1.10;;;;;;;;;;4943080;28;20058;-72
2021/08/06 14:31:50;;;;;;;3.30;1.20;;;;;;;;;;4939169;28;20031;-73
2021/08/06 14:34:15;;;;;;;3.63;1.20;;;;;;;;;;4940823;28;20328;-73
2021/08/06 14:36:41;;;;;;;3.17;1.33;;;;;;;;;;4950180;28;20493;-69
2021/08/06 14:39:06;;;;;;;2.80;1.30;;;;;;;;;;4946110;28;20498;-71
2021/08/06 14:41:34;;;;;;;2.80;1.23;;;;;;;;;;4961278;28;20049;-71
2021/08/06 14:44:00;;;;;;;4.70;1.67;;;;;;;;;;4972220;28;20030;-71
2021/08/06 14:46:25;;;;;;;3.60;1.13;;;;;;;;;;4944553;28;20061;-70
2021/08/06 14:48:50;;;;;;;3.20;1.10;;;;;;;;;;4945539;28;20034;-72
2021/08/06 14:51:16;;;;;;;2.60;1.30;;;;;;;;;;4958833;28;20483;-74